Terminal Aerodrome Forecast
Issued by NWS

Home | Current Version | Previous Version | Graphics & Text | Print | Product List | Glossary On
Versions: 1 2 3 4 5 6 7 8 9 10 11 12 13 14
479
FTUS42 KMHX 131134
TAFISO
TAF
KISO 131134Z 1312/1412 25005KT P6SM SCT250
     FM132100 04008KT P6SM BKN025
     FM140500 05012KT P6SM BKN045
      AMD LTD TO CLD VIS AND WIND=

USA.gov is the U.S. government's official web portal to all federal, state and local government web resources and services.